createdAt,value
2023-03-24T00:04:44.319Z,1.10
2023-03-24T00:09:46.456Z,1.02
2023-03-24T00:14:48.187Z,0.90
2023-03-24T00:19:50.264Z,1.00
2023-03-24T00:24:51.984Z,1.23
2023-03-24T00:29:53.825Z,0.82
2023-03-24T00:34:55.674Z,0.93
2023-03-24T00:39:57.377Z,0.90
2023-03-24T00:44:59.109Z,1.20
2023-03-24T00:50:01.967Z,1.00
2023-03-24T00:55:06.283Z,1.20
2023-03-24T01:00:14.349Z,1.08
2023-03-24T01:05:17.627Z,1.05
2023-03-24T01:10:26.782Z,1.20
2023-03-24T01:15:33.606Z,0.90
2023-03-24T01:20:36.526Z,1.50
2023-03-24T01:25:38.878Z,1.20
2023-03-24T01:30:40.631Z,1.20
2023-03-24T01:35:42.922Z,1.10
2023-03-24T01:40:47.330Z,1.52
2023-03-24T01:45:58.273Z,1.73
2023-03-24T01:51:11.565Z,1.20
2023-03-24T01:56:13.951Z,1.73
2023-03-24T02:01:19.170Z,1.20
2023-03-24T02:06:59.269Z,1.50
2023-03-24T02:12:03.101Z,1.80
2023-03-24T02:17:19.083Z,1.17
2023-03-24T02:22:39.719Z,1.70
2023-03-24T02:28:10.706Z,2.05
2023-03-24T02:33:48.635Z,1.83
2023-03-24T02:39:27.494Z,1.65
2023-03-24T02:45:11.677Z,1.75
2023-03-24T02:50:29.656Z,1.58
2023-03-24T02:55:36.382Z,1.25
2023-03-24T03:00:47.346Z,1.73
2023-03-24T03:06:31.293Z,2.40
2023-03-24T03:11:33.346Z,2.30
2023-03-24T03:16:40.549Z,2.55
2023-03-24T03:21:45.013Z,2.40
2023-03-24T03:26:49.102Z,1.88
2023-03-24T03:32:07.479Z,2.13
2023-03-24T03:37:18.316Z,1.60
2023-03-24T03:42:20.688Z,1.60
2023-03-24T03:47:23.209Z,1.55
2023-03-24T03:52:25.729Z,1.70
2023-03-24T03:57:27.755Z,1.52
2023-03-24T04:03:06.203Z,1.80
2023-03-24T04:08:08.390Z,1.58
2023-03-24T04:14:18.843Z,1.67
2023-03-24T04:19:57.890Z,1.70
2023-03-24T04:25:07.715Z,1.67
2023-03-24T04:30:30.286Z,2.08
2023-03-24T04:35:46.815Z,2.45
2023-03-24T04:40:56.439Z,2.22
2023-03-24T04:45:59.119Z,2.75
2023-03-24T04:51:18.656Z,2.90
2023-03-24T04:56:52.928Z,2.70
2023-03-24T05:02:33.061Z,2.45
2023-03-24T05:07:40.974Z,2.58
2023-03-24T05:12:46.166Z,2.22
2023-03-24T05:18:11.089Z,1.70
2023-03-24T05:23:12.882Z,1.70
2023-03-24T05:28:16.750Z,1.60
2023-03-24T05:33:19.295Z,1.63
2023-03-24T05:38:22.190Z,1.80
2023-03-24T05:43:28.228Z,2.00
2023-03-24T05:48:42.761Z,1.73
2023-03-24T05:53:52.063Z,2.05
2023-03-24T05:58:58.324Z,2.13
2023-03-24T06:04:11.419Z,2.00
2023-03-24T06:09:15.212Z,1.80
2023-03-24T06:14:17.412Z,1.40
2023-03-24T06:19:33.855Z,1.80
2023-03-24T06:24:56.551Z,1.50
2023-03-24T06:29:59.421Z,1.70
2023-03-24T06:35:01.106Z,1.90
2023-03-24T06:40:14.139Z,1.88
2023-03-24T06:45:22.718Z,1.75
2023-03-24T06:50:27.172Z,1.80
2023-03-24T06:55:31.058Z,1.88
2023-03-24T07:00:32.980Z,1.80
2023-03-24T07:05:55.504Z,1.80
2023-03-24T07:10:57.825Z,1.52
2023-03-24T07:15:59.873Z,1.42
2023-03-24T07:21:01.743Z,1.75
2023-03-24T07:26:04.313Z,1.55
2023-03-24T07:31:29.210Z,1.58
2023-03-24T07:36:35.973Z,1.40
2023-03-24T07:41:39.831Z,1.50
2023-03-24T07:46:49.656Z,1.52
2023-03-24T07:51:51.766Z,1.50
2023-03-24T07:57:01.290Z,1.50
2023-03-24T08:02:03.601Z,1.58
2023-03-24T08:07:24.823Z,1.90
2023-03-24T08:12:26.549Z,2.38
2023-03-24T08:17:28.473Z,1.95
2023-03-24T08:22:30.396Z,1.90
2023-03-24T08:27:32.392Z,1.50
2023-03-24T08:32:34.766Z,1.55
2023-03-24T08:37:37.356Z,1.20
2023-03-24T08:42:39.538Z,1.17
2023-03-24T08:47:41.645Z,1.30
2023-03-24T08:52:43.403Z,1.33
2023-03-24T08:57:45.855Z,1.40
2023-03-24T09:02:49.559Z,1.30
2023-03-24T09:07:51.657Z,1.40
2023-03-24T09:12:53.245Z,1.38
2023-03-24T09:17:54.956Z,1.83
2023-03-24T09:22:56.771Z,1.27
2023-03-24T09:27:58.477Z,1.48
2023-03-24T09:33:00.325Z,1.13
2023-03-24T09:38:02.109Z,1.45
2023-03-24T09:43:08.358Z,1.00
2023-03-24T09:48:26.365Z,1.27
2023-03-24T09:53:43.265Z,0.90
2023-03-24T09:58:51.192Z,0.85
2023-03-24T10:03:59.689Z,1.02
2023-03-24T10:09:32.059Z,0.90
2023-03-24T10:14:55.795Z,0.50
2023-03-24T10:20:09.436Z,0.70
2023-03-24T10:25:21.507Z,0.80
2023-03-24T10:30:30.215Z,0.60
2023-03-24T10:35:39.279Z,0.50
2023-03-24T10:40:41.802Z,0.63
2023-03-24T10:45:47.285Z,0.43
2023-03-24T10:50:49.535Z,0.40
2023-03-24T10:55:51.799Z,0.30
2023-03-24T11:00:54.381Z,0.40
2023-03-24T11:06:01.814Z,0.45
2023-03-24T11:11:29.325Z,0.30
2023-03-24T11:16:36.690Z,0.50
2023-03-24T11:21:39.618Z,0.50
2023-03-24T11:27:15.004Z,0.40
2023-03-24T11:32:23.371Z,0.60
2023-03-24T11:37:34.820Z,0.40
2023-03-24T11:42:45.383Z,0.57
2023-03-24T11:47:48.364Z,0.50
2023-03-24T11:53:02.405Z,0.50
2023-03-24T11:58:11.407Z,0.32
2023-03-24T12:03:16.139Z,0.38
2023-03-24T12:08:30.784Z,0.30
2023-03-24T12:13:38.730Z,0.30
2023-03-24T12:18:50.352Z,0.40
2023-03-24T12:24:02.408Z,0.50
2023-03-24T12:29:24.905Z,0.38
2023-03-24T12:35:02.745Z,0.40
2023-03-24T12:40:16.540Z,0.57
2023-03-24T12:45:30.596Z,0.30
2023-03-24T12:50:32.315Z,0.40
2023-03-24T12:55:48.601Z,0.30
2023-03-24T13:00:59.212Z,0.40
2023-03-24T13:06:17.905Z,0.50
2023-03-24T13:11:34.813Z,0.60
2023-03-24T13:16:39.185Z,0.30
2023-03-24T13:21:41.602Z,0.50
2023-03-24T13:26:58.545Z,0.38
2023-03-24T13:32:09.345Z,0.55
2023-03-24T13:37:17.080Z,0.40
2023-03-24T13:42:48.012Z,0.68
2023-03-24T13:47:54.690Z,0.40
2023-03-24T13:53:12.875Z,0.55
2023-03-24T13:58:24.107Z,0.60
2023-03-24T14:03:43.437Z,0.80
2023-03-24T14:08:52.239Z,0.73
2023-03-24T14:13:54.382Z,0.95
2023-03-24T14:19:28.781Z,0.70
2023-03-24T14:24:32.978Z,0.70
2023-03-24T14:29:52.367Z,1.00
2023-03-24T14:35:00.278Z,0.75
2023-03-24T14:40:02.242Z,1.10
2023-03-24T14:45:25.580Z,1.10
2023-03-24T14:50:28.935Z,0.98
2023-03-24T14:55:31.099Z,0.90
2023-03-24T15:00:40.570Z,0.68
2023-03-24T15:05:42.412Z,0.90
2023-03-24T15:10:46.829Z,1.00
2023-03-24T15:15:49.654Z,0.95
2023-03-24T15:20:53.057Z,0.50
2023-03-24T15:25:56.268Z,0.88
2023-03-24T15:31:02.731Z,2.30
2023-03-24T15:36:13.328Z,0.90
2023-03-24T15:41:17.816Z,1.35
2023-03-24T15:46:30.955Z,0.82
2023-03-24T15:51:56.970Z,1.00
2023-03-24T15:57:22.618Z,0.70
2023-03-24T16:02:47.651Z,1.20
2023-03-24T16:07:56.208Z,0.77
2023-03-24T16:13:17.582Z,0.90
2023-03-24T16:18:23.652Z,1.05
2023-03-24T16:23:26.813Z,1.10
2023-03-24T16:28:28.599Z,1.25
2023-03-24T16:33:33.817Z,0.73
2023-03-24T16:38:35.587Z,1.55
2023-03-24T16:43:37.175Z,1.35
2023-03-24T16:48:38.848Z,1.13
2023-03-24T16:53:41.599Z,0.98
2023-03-24T16:58:43.684Z,0.80
2023-03-24T17:03:49.688Z,0.70
2023-03-24T17:08:51.725Z,0.70
2023-03-24T17:13:54.374Z,0.98
2023-03-24T17:18:56.307Z,0.80
2023-03-24T17:23:58.009Z,0.95
2023-03-24T17:28:59.677Z,0.80
2023-03-24T17:34:08.619Z,0.70
2023-03-24T17:39:22.183Z,1.05
2023-03-24T17:44:23.841Z,0.80
2023-03-24T17:49:25.658Z,0.80
2023-03-24T17:54:28.133Z,0.80
2023-03-24T17:59:29.831Z,0.90
2023-03-24T18:04:32.852Z,1.10
2023-03-24T18:09:34.617Z,1.10
2023-03-24T18:14:36.398Z,1.10
2023-03-24T18:19:38.393Z,1.45
2023-03-24T18:24:40.338Z,0.95
2023-03-24T18:29:41.985Z,1.00
2023-03-24T18:34:44.830Z,1.63
2023-03-24T18:39:46.625Z,1.20
2023-03-24T18:44:48.234Z,0.93
2023-03-24T18:49:49.837Z,0.90
2023-03-24T18:54:53.296Z,1.10
2023-03-24T18:59:55.314Z,1.20
2023-03-24T19:04:56.985Z,1.20
2023-03-24T19:09:59.969Z,1.40
2023-03-24T19:15:01.759Z,1.60
2023-03-24T19:20:04.929Z,1.40
2023-03-24T19:25:08.246Z,1.40
2023-03-24T19:30:10.865Z,1.30
2023-03-24T19:35:13.512Z,1.20
2023-03-24T19:40:15.659Z,1.50
2023-03-24T19:45:18.156Z,1.08
2023-03-24T19:50:20.018Z,1.67
2023-03-24T19:55:21.662Z,1.70
2023-03-24T20:00:23.484Z,1.23
2023-03-24T20:05:25.151Z,1.35
2023-03-24T20:10:27.647Z,1.20
2023-03-24T20:15:29.267Z,1.00
2023-03-24T20:20:31.658Z,1.30
2023-03-24T20:25:33.426Z,1.30
2023-03-24T20:30:35.240Z,1.17
2023-03-24T20:35:37.206Z,1.30
2023-03-24T20:40:38.873Z,1.60
2023-03-24T20:45:40.829Z,1.20
2023-03-24T20:50:43.393Z,1.10
2023-03-24T20:55:49.070Z,0.90
2023-03-24T21:00:51.987Z,1.20
2023-03-24T21:05:53.694Z,1.17
2023-03-24T21:10:58.896Z,1.10
2023-03-24T21:16:01.232Z,1.00
2023-03-24T21:21:03.857Z,1.10
2023-03-24T21:26:08.884Z,1.00
2023-03-24T21:31:30.773Z,1.63
2023-03-24T21:36:32.403Z,1.35
2023-03-24T21:41:34.187Z,1.13
2023-03-24T21:46:36.924Z,1.00
2023-03-24T21:51:38.985Z,0.90
2023-03-24T21:56:40.782Z,1.00
2023-03-24T22:01:42.728Z,1.10
2023-03-24T22:06:44.515Z,1.10
2023-03-24T22:11:46.672Z,1.23
2023-03-24T22:16:48.477Z,1.10
2023-03-24T22:22:00.332Z,1.08
2023-03-24T22:27:02.214Z,0.90
2023-03-24T22:32:04.022Z,0.82
2023-03-24T22:37:05.775Z,1.23
2023-03-24T22:42:09.076Z,0.98
2023-03-24T22:47:11.275Z,1.30
2023-03-24T22:52:13.198Z,0.90
2023-03-24T22:57:15.001Z,0.93
2023-03-24T23:02:17.718Z,0.93
2023-03-24T23:07:19.543Z,0.90
2023-03-24T23:12:22.357Z,1.08
2023-03-24T23:17:24.301Z,1.00
2023-03-24T23:22:26.204Z,1.20
2023-03-24T23:27:27.850Z,1.00
2023-03-24T23:32:32.589Z,1.02
2023-03-24T23:37:38.971Z,1.42
2023-03-24T23:42:42.985Z,0.95
2023-03-24T23:47:47.744Z,1.13
2023-03-24T23:52:51.825Z,1.00
2023-03-24T23:57:54.799Z,1.08
